Time;durP1;ratioP1;P1;durP2;ratioP2;P2;SDS_P1;SDS_P2;PMS_P1;PMS_P2;Temp;Humidity;BMP_temperature;BMP_pressure;BME280_temperature;BME280_humidity;BME280_pressure;Samples;Min_cycle;Max_cycle;Signal;HPM_P1;HPM_P2
2022/05/21 00:00:36;;;;;;;17.38;3.47;;;;;;;12.57;100.00;101840.56;5093261;28;20387;-68
2022/05/21 00:03:02;;;;;;;24.00;3.63;;;;;;;12.53;100.00;101854.53;5101260;28;20383;-68
2022/05/21 00:05:29;;;;;;;19.35;4.05;;;;;;;12.50;100.00;101846.56;5092233;28;20055;-68
2022/05/21 00:07:55;;;;;;;22.08;3.20;;;;;;;12.56;100.00;101844.06;5102825;28;20387;-67
2022/05/21 00:10:22;;;;;;;16.60;3.65;;;;;;;12.55;100.00;101837.00;5102691;28;20103;-67
2022/05/21 00:12:47;;;;;;;17.02;4.28;;;;;;;12.56;100.00;101838.78;5092789;28;20397;-67
2022/05/21 00:15:16;;;;;;;15.93;3.97;;;;;;;12.60;100.00;101843.28;5102884;28;20062;-68
2022/05/21 00:17:42;;;;;;;23.45;3.55;;;;;;;12.64;100.00;101853.06;5089282;28;20559;-68
2022/05/21 00:20:47;;;;;;;20.02;3.15;;;;;;;12.72;100.00;101840.91;5092170;28;20020;-68
2022/05/21 00:22:53;;;;;;;23.90;3.58;;;;;;;12.76;100.00;101853.34;5096172;28;20042;-68
2022/05/21 00:25:19;;;;;;;27.95;3.90;;;;;;;12.86;100.00;101849.19;5113190;28;20019;-68
2022/05/21 00:27:44;;;;;;;14.57;3.15;;;;;;;12.85;100.00;101846.53;5091506;28;20028;-68
2022/05/21 00:30:10;;;;;;;17.90;3.95;;;;;;;12.89;100.00;101848.38;5112102;28;20402;-67
2022/05/21 00:32:35;;;;;;;17.23;3.58;;;;;;;12.87;100.00;101858.88;5104493;28;20449;-68
2022/05/21 00:35:01;;;;;;;19.75;4.07;;;;;;;12.84;100.00;101847.38;5091860;28;20047;-68
2022/05/21 00:37:26;;;;;;;20.30;3.33;;;;;;;12.89;100.00;101849.25;5090312;28;20036;-67
2022/05/21 00:39:51;;;;;;;14.55;3.35;;;;;;;12.94;100.00;101855.53;5091852;28;20026;-69
2022/05/21 00:42:17;;;;;;;15.27;3.45;;;;;;;12.98;100.00;101861.78;5092280;28;20103;-67
2022/05/21 00:44:42;;;;;;;23.58;4.75;;;;;;;13.04;100.00;101861.91;5091991;28;20032;-67
2022/05/21 00:47:07;;;;;;;17.00;3.97;;;;;;;13.04;100.00;101854.00;5090268;28;20044;-67
2022/05/21 00:49:34;;;;;;;16.38;4.00;;;;;;;13.05;100.00;101849.59;5097066;28;20042;-67
2022/05/21 00:52:10;;;;;;;19.88;3.88;;;;;;;13.06;100.00;101851.38;5089150;28;20028;-67
2022/05/21 00:54:48;;;;;;;20.15;4.00;;;;;;;13.11;100.00;101845.34;5086914;28;20081;-67
2022/05/21 00:57:25;;;;;;;23.33;4.28;;;;;;;13.11;100.00;101845.34;5083260;28;20491;-67
2022/05/21 01:00:13;;;;;;;20.63;4.00;;;;;;;13.13;100.00;101848.94;5109323;28;20028;-68
2022/05/21 01:02:47;;;;;;;18.33;4.45;;;;;;;13.13;100.00;101859.50;5097716;28;20100;-69
2022/05/21 01:05:16;;;;;;;24.90;4.55;;;;;;;13.14;100.00;101850.72;5100217;28;20032;-67
2022/05/21 01:07:43;;;;;;;18.25;3.45;;;;;;;13.22;100.00;101847.34;5097171;28;20490;-67
2022/05/21 01:10:10;;;;;;;21.10;4.18;;;;;;;13.20;100.00;101855.25;5093944;28;20044;-67
2022/05/21 01:12:40;;;;;;;21.55;4.07;;;;;;;13.18;100.00;101850.78;5099157;28;20062;-67
2022/05/21 01:15:11;;;;;;;19.13;3.72;;;;;;;13.19;100.00;101863.13;5111058;28;20046;-67
2022/05/21 01:17:37;;;;;;;28.10;4.35;;;;;;;13.14;100.00;101861.28;5088118;28;20094;-68
2022/05/21 01:20:13;;;;;;;32.05;4.55;;;;;;;13.15;100.00;101860.41;5099051;28;20055;-67
2022/05/21 01:22:46;;;;;;;25.80;4.82;;;;;;;13.20;100.00;101864.91;5093855;28;20028;-68
2022/05/21 01:25:14;;;;;;;24.00;5.18;;;;;;;13.13;100.00;101866.50;5094578;28;20066;-68
2022/05/21 01:27:40;;;;;;;16.50;3.60;;;;;;;13.13;100.00;101859.50;5095296;28;20042;-68
2022/05/21 01:30:09;;;;;;;19.42;3.40;;;;;;;13.17;100.00;101871.00;5102384;28;20024;-68
2022/05/21 01:32:35;;;;;;;22.63;3.47;;;;;;;13.16;100.00;101859.56;5098815;28;20057;-68
2022/05/21 01:35:00;;;;;;;19.30;3.97;;;;;;;13.14;100.00;101847.16;5095402;28;20384;-67
2022/05/21 01:37:26;;;;;;;26.40;4.38;;;;;;;13.12;100.00;101863.00;5099622;28;20133;-67
2022/05/21 01:39:52;;;;;;;26.35;4.03;;;;;;;13.08;100.00;101861.13;5110577;28;20532;-68
2022/05/21 01:42:17;;;;;;;26.48;4.70;;;;;;;13.08;100.00;101860.25;5094756;28;20020;-68
2022/05/21 01:44:44;;;;;;;26.50;4.43;;;;;;;13.02;100.00;101858.34;5095568;28;20031;-68
2022/05/21 01:47:12;;;;;;;22.73;4.07;;;;;;;13.01;100.00;101871.50;5092183;28;20047;-68
2022/05/21 01:49:40;;;;;;;22.98;3.90;;;;;;;12.99;100.00;101860.91;5094770;28;20032;-68
2022/05/21 01:52:07;;;;;;;22.02;4.00;;;;;;;13.02;100.00;101865.38;5097308;28;20051;-68
2022/05/21 01:54:33;;;;;;;26.92;6.05;;;;;;;12.95;100.00;101864.34;5093943;28;20391;-67
2022/05/21 01:56:59;;;;;;;23.65;4.05;;;;;;;12.93;100.00;101863.44;5093774;28;20035;-67
2022/05/21 01:59:25;;;;;;;25.05;4.38;;;;;;;12.91;100.00;101862.50;5107324;28;20032;-68
2022/05/21 02:01:51;;;;;;;26.80;4.03;;;;;;;12.86;100.00;101864.13;5103994;28;20027;-67
2022/05/21 02:04:18;;;;;;;22.00;5.07;;;;;;;12.89;100.00;101859.81;5094815;28;20143;-67
2022/05/21 02:06:43;;;;;;;21.63;4.85;;;;;;;12.90;100.00;101872.19;5111459;28;20023;-67
2022/05/21 02:09:09;;;;;;;27.80;4.47;;;;;;;12.80;100.00;101870.16;5102725;28;20032;-67
2022/05/21 02:11:36;;;;;;;30.42;4.47;;;;;;;12.79;100.00;101861.38;5113353;28;20024;-68
2022/05/21 02:14:01;;;;;;;25.98;4.15;;;;;;;12.79;100.00;101864.00;5112507;28;20032;-67
2022/05/21 02:16:28;;;;;;;25.95;4.43;;;;;;;12.77;100.00;101875.38;5092325;28;20042;-67
2022/05/21 02:18:53;;;;;;;22.40;3.92;;;;;;;12.81;100.00;101867.56;5094450;28;20387;-68
2022/05/21 02:21:18;;;;;;;28.17;4.40;;;;;;;12.76;100.00;101865.66;5103067;28;20024;-69
2022/05/21 02:23:44;;;;;;;26.35;3.80;;;;;;;12.71;100.00;101870.84;5108835;28;20034;-68
2022/05/21 02:26:10;;;;;;;15.55;3.45;;;;;;;12.72;100.00;101877.00;5107234;28;20031;-68
2022/05/21 02:28:36;;;;;;;24.25;4.28;;;;;;;12.71;100.00;101875.22;5105680;28;20382;-68
2022/05/21 02:31:01;;;;;;;19.88;4.80;;;;;;;12.71;100.00;101865.56;5098991;28;20027;-68
2022/05/21 02:33:26;;;;;;;21.42;3.05;;;;;;;12.70;100.00;101873.47;5113018;28;20103;-68
2022/05/21 02:35:51;;;;;;;19.25;3.42;;;;;;;12.67;100.00;101869.00;5101191;28;20031;-68
2022/05/21 02:41:01;;;;;;;20.30;3.20;;;;;;;12.69;100.00;101877.81;5103337;28;20493;-67
2022/05/21 02:43:29;;;;;;;21.88;3.45;;;;;;;12.69;100.00;101876.94;5098446;28;20036;-69
2022/05/21 02:45:54;;;;;;;21.77;3.28;;;;;;;12.68;100.00;101881.31;5099115;28;20494;-67
2022/05/21 02:48:20;;;;;;;18.90;3.13;;;;;;;12.65;100.00;101881.25;5102451;28;20023;-67
2022/05/21 02:50:46;;;;;;;21.63;3.53;;;;;;;12.69;100.00;101875.19;5095893;28;20107;-68
2022/05/21 02:53:18;;;;;;;19.67;3.38;;;;;;;12.68;100.00;101881.31;5100061;28;20535;-68
2022/05/21 02:55:46;;;;;;;18.58;2.90;;;;;;;12.72;100.00;101883.19;5093413;28;20028;-68
2022/05/21 02:58:12;;;;;;;19.55;2.97;;;;;;;12.69;100.00;101877.81;5099670;28;20523;-67
2022/05/21 03:00:37;;;;;;;21.65;2.90;;;;;;;12.66;100.00;101885.69;5090914;28;20126;-67
2022/05/21 03:03:03;;;;;;;22.75;2.95;;;;;;;12.69;100.00;101877.81;5097330;28;20387;-67
2022/05/21 03:05:30;;;;;;;24.80;3.85;;;;;;;12.67;100.00;101873.34;5091622;28;20032;-68
2022/05/21 03:07:56;;;;;;;24.88;3.85;;;;;;;12.63;100.00;101877.69;5092888;28;20042;-67
2022/05/21 03:10:26;;;;;;;20.23;2.90;;;;;;;12.58;100.00;101876.69;5104603;28;20035;-68
2022/05/21 03:12:54;;;;;;;17.50;2.67;;;;;;;12.57;100.00;101878.41;5109670;28;20845;-67
2022/05/21 03:15:25;;;;;;;24.20;3.13;;;;;;;12.52;100.00;101881.78;5103444;28;20119;-68
2022/05/21 03:17:51;;;;;;;18.80;3.38;;;;;;;12.55;100.00;101879.25;5105382;28;20452;-69
2022/05/21 03:20:19;;;;;;;18.20;3.42;;;;;;;12.56;100.00;101881.00;5104695;28;20043;-68
2022/05/21 03:22:44;;;;;;;16.38;3.22;;;;;;;12.54;100.00;101880.09;5087618;28;20052;-68
2022/05/21 03:25:11;;;;;;;21.58;3.45;;;;;;;12.54;100.00;101886.25;5111062;28;20483;-68
2022/05/21 03:27:37;;;;;;;15.52;3.15;;;;;;;12.51;100.00;101882.63;5086249;28;20035;-68
2022/05/21 03:30:04;;;;;;;11.13;2.65;;;;;;;12.48;100.00;101889.66;5106991;28;20023;-69
2022/05/21 03:32:30;;;;;;;24.75;3.72;;;;;;;12.52;100.00;101890.63;5102122;28;20498;-68
2022/05/21 03:34:55;;;;;;;15.60;2.88;;;;;;;12.41;100.00;101882.44;5090250;28;20027;-68
2022/05/21 03:37:20;;;;;;;18.30;3.47;;;;;;;12.44;100.00;101893.06;5113176;28;20023;-68
2022/05/21 03:39:46;;;;;;;15.15;3.28;;;;;;;12.44;100.00;101895.69;5108828;28;20072;-67
2022/05/21 03:42:11;;;;;;;20.33;3.08;;;;;;;12.44;100.00;101893.06;5094718;28;20032;-68
2022/05/21 03:44:36;;;;;;;20.67;3.75;;;;;;;12.45;100.00;101893.94;5111267;28;20028;-68
2022/05/21 03:47:02;;;;;;;24.38;3.45;;;;;;;12.43;100.00;101896.53;5092313;28;20803;-68
2022/05/21 03:49:28;;;;;;;17.75;3.47;;;;;;;12.44;100.00;101897.47;5107617;28;20015;-66
2022/05/21 03:51:53;;;;;;;18.65;3.08;;;;;;;12.39;100.00;101899.09;5108742;28;20028;-67
2022/05/21 03:54:18;;;;;;;18.15;3.83;;;;;;;12.41;100.00;101906.19;5091628;28;20020;-67
2022/05/21 03:56:44;;;;;;;17.92;3.35;;;;;;;12.44;100.00;101898.34;5083487;28;20031;-67
2022/05/21 03:59:09;;;;;;;25.08;3.75;;;;;;;12.45;100.00;101894.84;5100761;28;20031;-68
2022/05/21 04:01:34;;;;;;;19.50;3.55;;;;;;;12.42;100.00;101892.09;5101842;28;20472;-68
2022/05/21 04:04:00;;;;;;;26.52;4.25;;;;;;;12.41;100.00;101898.28;5096106;28;20487;-67
2022/05/21 04:06:25;;;;;;;21.80;3.00;;;;;;;12.38;100.00;101895.53;5096620;28;20028;-67
2022/05/21 04:08:51;;;;;;;15.30;3.30;;;;;;;12.37;100.00;101906.97;5097923;28;20024;-67
2022/05/21 04:11:17;;;;;;;23.92;3.38;;;;;;;12.38;100.00;101903.44;5106967;28;20077;-67
2022/05/21 04:13:42;;;;;;;20.13;3.85;;;;;;;12.34;100.00;101901.56;5097954;28;20107;-67
2022/05/21 04:16:07;;;;;;;19.52;2.80;;;;;;;12.33;100.00;101905.09;5107929;28;20020;-68
2022/05/21 04:18:33;;;;;;;19.08;3.15;;;;;;;12.36;100.00;101909.53;5093389;28;20023;-67
2022/05/21 04:20:58;;;;;;;21.45;3.42;;;;;;;12.36;100.00;101910.44;5104471;28;20031;-68
2022/05/21 04:23:23;;;;;;;13.20;3.35;;;;;;;12.38;100.00;101914.00;5103336;28;20063;-68
2022/05/21 04:25:49;;;;;;;17.20;3.47;;;;;;;12.36;100.00;101910.44;5104769;28;20063;-68
2022/05/21 04:28:14;;;;;;;18.70;2.45;;;;;;;12.38;100.00;101916.63;5096336;28;20023;-67
2022/05/21 04:30:39;;;;;;;21.73;3.20;;;;;;;12.39;100.00;101923.72;5104117;28;20095;-68
2022/05/21 04:33:05;;;;;;;31.08;4.30;;;;;;;12.37;100.00;101928.06;5099371;28;20862;-67
2022/05/21 04:38:15;;;;;;;17.70;3.70;;;;;;;12.37;100.00;101920.16;5097635;28;20043;-67
2022/05/21 04:40:41;;;;;;;20.88;3.20;;;;;;;12.36;100.00;101928.94;5103289;28;20395;-67
2022/05/21 04:43:07;;;;;;;17.05;3.30;;;;;;;12.36;100.00;101931.56;5112378;28;20103;-66
2022/05/21 04:45:32;;;;;;;14.40;2.78;;;;;;;12.35;100.00;101929.78;5096073;28;20064;-68
2022/05/21 04:48:01;;;;;;;24.38;3.15;;;;;;;12.42;100.00;101931.72;5111981;28;20123;-67
2022/05/21 04:50:26;;;;;;;17.50;2.97;;;;;;;12.41;100.00;101929.94;5106606;28;20028;-67
2022/05/21 04:52:51;;;;;;;16.90;2.92;;;;;;;12.41;100.00;101945.78;5094122;28;20548;-67
2022/05/21 04:55:17;;;;;;;14.02;2.80;;;;;;;12.44;100.00;101945.84;5097365;28;20031;-68
2022/05/21 04:57:42;;;;;;;20.40;3.25;;;;;;;12.47;100.00;101940.66;5101552;28;20481;-67
2022/05/21 05:00:08;;;;;;;21.23;2.92;;;;;;;12.49;100.00;101948.59;5093788;28;20031;-67
2022/05/21 05:02:34;;;;;;;22.80;3.50;;;;;;;12.54;100.00;101947.00;5090562;28;20059;-68
2022/05/21 05:04:59;;;;;;;23.15;2.83;;;;;;;12.57;100.00;101951.47;5092913;28;20058;-68
2022/05/21 05:07:24;;;;;;;18.90;3.05;;;;;;;12.56;100.00;101957.59;5100032;28;20027;-68
2022/05/21 05:09:50;;;;;;;18.13;2.70;;;;;;;12.56;100.00;101954.94;5091743;28;20028;-67
2022/05/21 05:12:16;;;;;;;20.08;3.08;;;;;;;12.58;100.00;101964.69;5096416;28;20020;-67
2022/05/21 05:14:42;;;;;;;20.42;3.78;;;;;;;12.61;100.00;101963.88;5107933;28;20028;-67
2022/05/21 05:17:11;;;;;;;19.00;2.97;;;;;;;12.61;100.00;101962.13;5116933;28;20026;-68
2022/05/21 05:19:38;;;;;;;18.55;3.58;;;;;;;12.64;100.00;101970.16;5094761;28;20089;-68
2022/05/21 05:22:05;;;;;;;23.40;3.47;;;;;;;12.70;100.00;101969.41;5099813;28;20028;-68
2022/05/21 05:24:30;;;;;;;14.65;2.65;;;;;;;12.69;100.00;101972.03;5112656;28;20031;-68
2022/05/21 05:26:56;;;;;;;21.63;3.30;;;;;;;12.70;100.00;101977.34;5107224;27;20026;-68
2022/05/21 05:29:21;;;;;;;19.67;3.05;;;;;;;12.72;100.00;101972.97;5106776;28;20099;-68
2022/05/21 05:31:46;;;;;;;21.40;3.50;;;;;;;12.74;100.00;101981.84;5100399;28;20023;-67
2022/05/21 05:34:12;;;;;;;13.13;2.72;;;;;;;12.77;100.00;101981.03;5098803;28;20055;-67
2022/05/21 05:36:38;;;;;;;14.35;2.58;;;;;;;12.80;100.00;101983.75;5100967;28;20030;-67
2022/05/21 05:39:03;;;;;;;18.80;3.50;;;;;;;12.82;100.00;101975.00;5094469;28;20012;-68
2022/05/21 05:41:29;;;;;;;17.30;3.10;;;;;;;12.84;100.00;101977.69;5095462;28;20032;-68
2022/05/21 05:43:56;;;;;;;21.55;3.53;;;;;;;12.89;100.00;101983.09;5101755;28;20028;-67
2022/05/21 05:46:23;;;;;;;16.50;3.42;;;;;;;12.90;100.00;101983.13;5096777;28;20474;-67
2022/05/21 05:48:49;;;;;;;27.75;3.80;;;;;;;12.91;100.00;101986.66;5106487;28;20102;-68
2022/05/21 05:51:16;;;;;;;25.15;3.80;;;;;;;12.93;100.00;101987.59;5105777;28;20074;-68
2022/05/21 05:53:42;;;;;;;32.25;3.38;;;;;;;12.97;100.00;101990.34;5107524;28;20030;-67
2022/05/21 05:56:08;;;;;;;23.33;3.25;;;;;;;13.02;100.00;101992.22;5094722;28;21436;-67
2022/05/21 06:01:20;;;;;;;14.88;2.58;;;;;;;13.04;100.00;101979.94;5104515;28;20050;-67
2022/05/21 06:03:45;;;;;;;13.82;3.03;;;;;;;13.08;100.00;101982.69;5091385;28;20501;-67
2022/05/21 06:06:10;;;;;;;20.38;4.30;;;;;;;13.12;100.00;101981.91;5105284;28;20106;-67
2022/05/21 06:08:36;;;;;;;17.55;3.45;;;;;;;13.09;100.00;101976.56;5096482;28;20414;-68
2022/05/21 06:11:01;;;;;;;25.00;3.88;;;;;;;13.10;100.00;101995.94;5096064;28;20099;-68
2022/05/21 06:13:26;;;;;;;18.92;2.83;;;;;;;13.12;100.00;101984.53;5091144;28;20032;-67
2022/05/21 06:15:52;;;;;;;15.63;2.65;;;;;;;13.15;100.00;101989.91;5092795;28;20020;-68
2022/05/21 06:18:20;;;;;;;16.55;2.60;;;;;;;13.18;100.00;101981.16;5093742;28;20020;-67
2022/05/21 06:20:46;;;;;;;19.23;2.90;;;;;;;13.20;100.00;101997.03;5098025;28;20024;-68
2022/05/21 06:23:15;;;;;;;16.60;2.75;;;;;;;13.24;100.00;102001.56;5105643;28;20024;-68
2022/05/21 06:25:40;;;;;;;15.77;2.40;;;;;;;13.30;100.00;102004.34;5094575;28;20024;-69
2022/05/21 06:28:06;;;;;;;18.75;3.13;;;;;;;13.33;100.00;102013.25;5093848;28;20024;-68
2022/05/21 06:30:34;;;;;;;17.25;2.90;;;;;;;13.37;100.00;102013.34;5088968;28;20016;-70
2022/05/21 06:33:19;;;;;;;22.77;4.05;;;;;;;13.36;100.00;102015.13;5086546;28;20036;-70
2022/05/21 06:35:49;;;;;;;14.23;2.90;;;;;;;13.37;100.00;102016.88;5086035;28;20020;-70
2022/05/21 06:38:15;;;;;;;13.43;3.05;;;;;;;13.43;100.00;102027.63;5083305;28;20020;-70
2022/05/21 06:40:40;;;;;;;11.23;2.70;;;;;;;13.48;100.00;102040.94;5086435;28;20111;-70
2022/05/21 06:43:06;;;;;;;18.00;3.17;;;;;;;13.59;100.00;102031.53;5088804;28;20103;-70
2022/05/21 06:45:33;;;;;;;16.63;2.55;;;;;;;13.60;100.00;102045.63;5084704;28;20028;-70
2022/05/21 06:48:00;;;;;;;16.20;3.38;;;;;;;13.69;100.00;102048.50;5087500;28;20062;-71
2022/05/21 06:50:25;;;;;;;13.57;2.85;;;;;;;13.62;100.00;102049.22;5090627;28;20434;-70
2022/05/21 06:52:51;;;;;;;19.70;3.30;;;;;;;13.61;100.00;102058.00;5091666;28;20028;-70
2022/05/21 06:55:16;;;;;;;20.48;3.70;;;;;;;13.52;100.00;102052.50;5091194;28;20046;-70
2022/05/21 06:57:41;;;;;;;20.38;3.42;;;;;;;13.46;100.00;102059.41;5100289;28;20069;-68
2022/05/21 07:00:08;;;;;;;15.55;2.70;;;;;;;13.49;100.00;102051.53;5092667;28;20020;-67
2022/05/21 07:02:34;;;;;;;25.73;3.33;;;;;;;13.57;100.00;102050.88;5093092;28;20550;-67
2022/05/21 07:07:46;;;;;;;19.33;2.90;;;;;;;13.66;100.00;102057.25;5083198;28;20166;-68
2022/05/21 07:10:17;;;;;;;20.33;3.03;;;;;;;13.69;100.00;102061.72;5091207;28;20031;-68
2022/05/21 07:12:43;;;;;;;13.32;4.15;;;;;;;13.80;100.00;102062.84;5093067;28;20035;-68
2022/05/21 07:15:08;;;;;;;20.40;3.03;;;;;;;13.87;100.00;102065.66;5098766;28;20371;-66
2022/05/21 07:17:34;;;;;;;16.60;3.85;;;;;;;13.90;100.00;102063.06;5095331;28;20108;-67
2022/05/21 07:20:05;;;;;;;12.82;2.83;;;;;;;13.88;100.00;102072.75;5093660;28;20024;-68
2022/05/21 07:22:30;;;;;;;12.68;2.42;;;;;;;13.93;100.00;102074.63;5098511;28;20107;-68
2022/05/21 07:24:56;;;;;;;19.95;3.33;;;;;;;13.95;100.00;102086.13;5093704;28;20030;-68
2022/05/21 07:27:23;;;;;;;17.17;2.75;;;;;;;13.90;100.00;102081.59;5093315;28;20107;-67
2022/05/21 07:29:48;;;;;;;19.85;3.05;;;;;;;13.94;100.00;102084.31;5094065;28;20016;-68
2022/05/21 07:32:22;;;;;;;16.50;2.58;;;;;;;14.11;100.00;102091.78;5094816;28;20030;-69
2022/05/21 07:34:47;;;;;;;23.73;3.60;;;;;;;14.11;100.00;102087.38;5097737;28;20024;-71
2022/05/21 07:37:13;;;;;;;19.83;3.38;;;;;;;14.09;100.00;102089.06;5090437;28;20025;-70
2022/05/21 07:39:39;;;;;;;16.67;3.17;;;;;;;14.09;100.00;102091.72;5093539;28;20119;-68
2022/05/21 07:42:05;;;;;;;15.15;2.90;;;;;;;14.09;100.00;102099.66;5100763;28;20095;-67
2022/05/21 07:44:30;;;;;;;21.77;3.47;;;;;;;14.00;100.00;102094.19;5093795;28;20093;-67
2022/05/21 07:46:56;;;;;;;21.33;3.22;;;;;;;14.15;100.00;102107.75;5092092;28;20484;-69
2022/05/21 07:49:23;;;;;;;14.90;2.83;;;;;;;14.22;100.00;102108.78;5102558;28;20036;-67
2022/05/21 07:51:48;;;;;;;23.40;3.53;;;;;;;14.22;100.00;102116.72;5106725;28;20040;-68
2022/05/21 07:54:14;;;;;;;25.15;3.38;;;;;;;14.28;100.00;102110.66;5100593;28;20054;-70
2022/05/21 07:56:39;;;;;;;22.10;3.72;;;;;;;14.36;100.00;102108.19;5113956;27;20535;-70
2022/05/21 07:59:05;;;;;;;23.88;3.78;;;;;;;14.40;100.00;102116.22;5094016;28;20024;-70
2022/05/21 08:01:30;;;;;;;20.00;3.28;;;;;;;14.47;100.00;102119.88;5086950;28;20461;-69
2022/05/21 08:03:55;;;;;;;21.50;3.50;;;;;;;14.56;100.00;102121.84;5093200;28;20055;-71
2022/05/21 08:06:21;;;;;;;25.77;3.40;;;;;;;14.63;100.00;102118.50;5090654;28;20069;-71
2022/05/21 08:08:46;;;;;;;15.40;3.33;;;;;;;14.66;100.00;102118.53;5109967;28;20030;-70
2022/05/21 08:11:12;;;;;;;17.15;3.00;;;;;;;14.71;100.00;102122.19;5102021;28;20035;-71
2022/05/21 08:13:37;;;;;;;19.55;2.88;;;;;;;14.70;100.00;102117.75;5098432;28;20024;-71
2022/05/21 08:16:03;;;;;;;16.67;3.20;;;;;;;14.73;100.00;102131.06;5105896;28;20080;-70
2022/05/21 08:18:28;;;;;;;21.55;3.50;;;;;;;14.79;100.00;102130.28;5093306;28;20020;-70
2022/05/21 08:20:54;;;;;;;16.38;2.70;;;;;;;14.64;100.00;102125.59;5090809;28;20024;-71
2022/05/21 08:28:49;;;;;;;;;;;;;;;15.01;100.00;102127.16;5090216;28;20119;-71
2022/05/21 08:31:14;;;;;;;11.18;2.40;;;;;;;15.14;100.00;102133.63;5093302;28;20010;-71
2022/05/21 08:33:39;;;;;;;21.05;2.88;;;;;;;15.10;100.00;102133.53;5093342;28;20059;-71
2022/05/21 08:36:05;;;;;;;15.07;2.55;;;;;;;15.03;100.00;102135.19;5091001;28;20024;-72
2022/05/21 08:38:30;;;;;;;25.70;3.63;;;;;;;15.05;100.00;102133.44;5094308;28;20092;-72
2022/05/21 08:41:04;;;;;;;20.73;3.42;;;;;;;15.09;100.00;102129.97;5095572;28;20028;-70
2022/05/21 08:43:38;;;;;;;;;;;;;;;15.15;100.00;102130.09;5099114;28;20036;-70
2022/05/21 08:46:17;;;;;;;19.33;2.88;;;;;;;15.16;100.00;102131.88;5104681;28;19919;-72
2022/05/21 08:49:07;;;;;;;16.50;3.30;;;;;;;15.24;100.00;102123.19;5115186;28;20035;-72
2022/05/21 08:51:45;;;;;;;14.38;2.50;;;;;;;14.87;100.00;102126.03;5100674;28;20039;-72
2022/05/21 08:54:11;;;;;;;14.25;2.97;;;;;;;14.98;100.00;102131.53;5093683;28;20036;-71
2022/05/21 08:56:37;;;;;;;18.88;3.30;;;;;;;14.99;100.00;102123.63;5096950;28;20090;-73
2022/05/21 08:59:05;;;;;;;17.67;3.33;;;;;;;15.14;100.00;102132.72;5092290;28;20028;-71
2022/05/21 09:01:35;;;;;;;13.00;2.25;;;;;;;15.19;100.00;102138.97;5096642;28;20516;-72
2022/05/21 09:04:01;;;;;;;14.63;2.88;;;;;;;15.26;100.00;102137.34;5090691;28;20059;-72
2022/05/21 09:06:35;;;;;;;17.63;3.25;;;;;;;15.39;100.00;102136.69;5094955;28;20020;-71
2022/05/21 09:09:17;;;;;;;25.88;3.10;;;;;;;15.45;100.00;102131.50;5088062;28;20402;-71
2022/05/21 09:11:49;;;;;;;14.00;2.85;;;;;;;15.39;100.00;102122.56;5094606;28;20483;-71
2022/05/21 09:14:35;;;;;;;16.47;2.93;;;;;;;15.44;100.00;102131.50;5096582;28;20490;-71
2022/05/21 09:17:02;;;;;;;16.58;2.88;;;;;;;15.48;100.00;102133.31;5088081;28;20278;-71
2022/05/21 09:19:34;;;;;;;15.45;2.95;;;;;;;15.60;100.00;102122.00;5092383;28;20032;-71
2022/05/21 09:22:03;;;;;;;13.30;2.95;;;;;;;15.72;100.00;102122.22;5093488;28;20054;-71
2022/05/21 09:24:33;;;;;;;18.92;3.28;;;;;;;15.65;100.00;102120.31;5106892;28;20032;-72
2022/05/21 09:26:59;;;;;;;22.35;3.13;;;;;;;15.58;100.00;102123.75;5094611;28;20081;-71
2022/05/21 09:29:31;;;;;;;14.50;2.55;;;;;;;15.60;100.00;102127.31;5100471;28;20027;-71
2022/05/21 09:31:57;;;;;;;15.93;2.80;;;;;;;15.54;100.00;102128.09;5097203;28;20494;-71
2022/05/21 09:34:32;;;;;;;19.98;3.05;;;;;;;15.43;100.00;102125.28;5094439;28;20028;-72
2022/05/21 09:37:00;;;;;;;19.27;3.17;;;;;;;15.40;100.00;102138.50;5100027;28;20103;-71
2022/05/21 09:39:33;;;;;;;25.88;3.72;;;;;;;15.36;100.00;102139.31;5105003;28;20046;-71
2022/05/21 09:45:22;;;;;;;15.25;3.80;;;;;;;15.46;100.00;102141.25;5099739;28;20034;-71
2022/05/21 09:48:06;;;;;;;13.20;3.28;;;;;;;15.39;100.00;102136.69;5093835;28;20093;-70
2022/05/21 09:50:56;;;;;;;15.20;3.05;;;;;;;15.89;100.00;102132.25;5097974;28;20048;-71
2022/05/21 09:53:38;;;;;;;20.23;3.45;;;;;;;15.82;100.00;102134.78;5094390;28;20030;-71
2022/05/21 09:56:24;;;;;;;17.92;3.25;;;;;;;15.72;100.00;102138.16;5096694;28;20110;-72
2022/05/21 09:58:53;;;;;;;15.63;2.88;;;;;;;15.60;100.00;102132.63;5094941;28;20464;-71
2022/05/21 10:01:36;;;;;;;15.05;3.22;;;;;;;15.64;100.00;102145.97;5098123;28;20015;-71
2022/05/21 10:04:19;;;;;;;16.95;3.05;;;;;;;15.72;100.00;102147.84;5094472;28;20059;-71
2022/05/21 10:07:09;;;;;;;19.45;3.17;;;;;;;15.76;100.00;102162.94;5098363;28;20031;-71
2022/05/21 10:12:41;;;;;;;15.68;2.75;;;;;;;15.67;100.00;102166.38;5093518;28;20051;-72
2022/05/21 10:15:17;;;;;;;19.35;3.22;;;;;;;15.57;100.00;102175.03;5091880;28;20030;-72
2022/05/21 10:17:47;;;;;;;12.32;2.78;;;;;;;15.52;100.00;102173.19;5102700;28;20057;-71
2022/05/21 10:20:29;;;;;;;17.13;2.55;;;;;;;15.65;100.00;102163.69;5095101;28;20502;-71
2022/05/21 10:23:19;;;;;;;19.98;3.55;;;;;;;15.84;100.00;102162.25;5104701;28;20080;-71
2022/05/21 10:26:01;;;;;;;20.15;2.90;;;;;;;15.70;100.00;102166.41;5091380;28;20149;-73
2022/05/21 10:28:48;;;;;;;19.83;4.15;;;;;;;15.85;100.00;102163.16;5104039;28;20059;-72
2022/05/21 10:31:35;;;;;;;17.52;2.70;;;;;;;16.02;100.00;102159.00;5088122;28;20039;-73
2022/05/21 10:34:37;;;;;;;11.85;3.05;;;;;;;16.14;100.00;102160.94;5094291;28;20036;-71
2022/05/21 10:37:28;;;;;;;22.23;3.00;;;;;;;16.12;100.00;102170.63;5087627;28;20024;-72
2022/05/21 10:40:18;;;;;;;19.85;3.63;;;;;;;16.05;100.00;102168.75;5088397;28;21933;-71
2022/05/21 10:43:02;;;;;;;14.75;3.67;;;;;;;16.10;99.97;102176.78;5086861;28;20102;-72
2022/05/21 10:45:33;;;;;;;;;;;;;;;16.22;99.42;102170.78;5081462;28;20028;-71
2022/05/21 10:48:30;;;;;;;14.93;3.42;;;;;;;16.30;99.82;102174.44;5083773;28;19922;-72
2022/05/21 10:51:11;;;;;;;14.43;2.83;;;;;;;16.16;99.76;102176.91;5089150;28;20026;-72
2022/05/21 10:54:01;;;;;;;11.13;2.40;;;;;;;16.06;98.87;102173.22;5081515;28;20357;-72
2022/05/21 10:56:51;;;;;;;18.98;3.00;;;;;;;16.19;99.44;102169.84;5082686;28;20025;-72
2022/05/21 10:59:29;;;;;;;11.50;2.20;;;;;;;16.23;99.32;102167.25;5083459;28;20020;-72
2022/05/21 11:02:04;;;;;;;13.35;2.75;;;;;;;16.19;99.21;102166.31;5092281;28;20028;-72
2022/05/21 11:04:49;;;;;;;13.75;2.63;;;;;;;16.14;99.60;102174.22;5078784;28;20028;-71
2022/05/21 11:07:38;;;;;;;17.17;2.35;;;;;;;16.21;99.60;102179.59;5075805;28;20680;-70
2022/05/21 11:10:06;;;;;;;16.83;2.90;;;;;;;16.36;98.34;102177.19;5093212;28;20471;-70
2022/05/21 11:12:48;;;;;;;18.73;2.53;;;;;;;16.43;97.62;102181.69;5085581;28;20050;-71
2022/05/21 11:15:28;;;;;;;14.35;2.53;;;;;;;16.24;98.73;102179.66;5094483;28;20038;-71
2022/05/21 11:18:01;;;;;;;12.23;2.60;;;;;;;16.32;97.26;102172.72;5097456;28;20406;-73
2022/05/21 11:20:32;;;;;;;14.80;2.45;;;;;;;16.70;96.26;102174.97;5087794;28;20115;-70
2022/05/21 11:23:22;;;;;;;16.45;2.78;;;;;;;16.83;95.69;102176.91;5090425;28;20474;-71
2022/05/21 11:25:55;;;;;;;16.48;2.60;;;;;;;16.83;93.18;102168.03;5094534;28;20060;-71
2022/05/21 11:28:30;;;;;;;9.00;2.50;;;;;;;16.77;94.89;102167.97;5093166;28;20020;-71
2022/05/21 11:31:01;;;;;;;14.18;3.13;;;;;;;16.85;94.24;102171.63;5089905;28;20386;-71
2022/05/21 11:39:06;;;;;;;17.60;2.95;;;;;;;17.00;92.28;102173.59;5103320;28;20399;-71
2022/05/21 11:41:53;;;;;;;14.80;2.83;;;;;;;17.03;94.19;102168.28;5092159;28;20084;-71
2022/05/21 11:47:07;;;;;;;12.30;2.72;;;;;;;17.41;92.10;102170.44;5089201;28;20097;-72
2022/05/21 11:49:51;;;;;;;15.77;2.70;;;;;;;17.29;92.19;102171.22;5106738;28;20031;-71
2022/05/21 11:52:27;;;;;;;15.88;6.00;;;;;;;17.44;90.65;102167.81;5114121;28;20071;-71